Terminal Aerodrome Forecast
Issued by NWS Cleveland, OH

Home | Current Version | Previous Version | Text Only | Print | Product List | Glossary Off
Versions: 1 2 3 4 5 6 7 8 9 10 11 12 13 14 15 16

000
FTUS41 KCLE 181700
TAFCAK
TAF
KCAK 181739Z 1818/1918 24020G30KT P6SM BKN025
     FM182100 23020G30KT P6SM BKN035
     FM190100 22014KT P6SM SCT035 BKN250
     FM191500 20015G25KT P6SM BKN035 OVC080=

USA.gov is the U.S. government's official web portal to all federal, state and local government web resources and services.